createdAt,value
2023-04-25T00:00:44.802Z,2.42
2023-04-25T00:03:48.991Z,2.57
2023-04-25T00:06:53.432Z,2.70
2023-04-25T00:09:56.866Z,2.40
2023-04-25T00:13:00.045Z,2.62
2023-04-25T00:16:03.806Z,2.20
2023-04-25T00:19:08.953Z,2.20
2023-04-25T00:22:13.947Z,2.22
2023-04-25T00:25:17.129Z,1.90
2023-04-25T00:28:21.927Z,2.33
2023-04-25T00:31:25.174Z,2.00
2023-04-25T00:34:28.762Z,1.90
2023-04-25T00:37:32.486Z,1.92
2023-04-25T00:40:36.353Z,1.67
2023-04-25T00:43:41.409Z,1.40
2023-04-25T00:46:45.753Z,1.85
2023-04-25T00:49:49.179Z,1.50
2023-04-25T00:52:53.134Z,1.50
2023-04-25T00:55:57.064Z,1.67
2023-04-25T00:59:01.064Z,1.52
2023-04-25T01:02:05.935Z,1.60
2023-04-25T01:05:10.190Z,1.87
2023-04-25T01:08:14.463Z,2.05
2023-04-25T01:11:18.111Z,2.12
2023-04-25T01:14:21.245Z,2.10
2023-04-25T01:17:25.098Z,1.90
2023-04-25T01:20:30.120Z,2.10
2023-04-25T01:23:35.594Z,2.00
2023-04-25T01:26:41.219Z,2.25
2023-04-25T01:29:45.494Z,2.22
2023-04-25T01:32:50.487Z,2.45
2023-04-25T01:35:54.868Z,2.37
2023-04-25T01:38:58.232Z,2.60
2023-04-25T01:42:02.694Z,2.85
2023-04-25T01:45:09.047Z,2.37
2023-04-25T01:48:14.427Z,3.65
2023-04-25T01:51:19.902Z,2.97
2023-04-25T01:54:23.496Z,2.97
2023-04-25T01:57:26.694Z,2.50
2023-04-25T02:00:30.798Z,2.70
2023-04-25T02:03:34.778Z,2.90
2023-04-25T02:06:38.991Z,2.47
2023-04-25T02:09:43.495Z,3.00
2023-04-25T02:12:48.147Z,2.90
2023-04-25T02:15:51.848Z,2.62
2023-04-25T02:18:55.180Z,2.65
2023-04-25T02:21:59.244Z,2.70
2023-04-25T02:25:02.845Z,2.72
2023-04-25T02:28:06.410Z,3.05
2023-04-25T02:31:10.134Z,2.47
2023-04-25T02:34:14.957Z,2.50
2023-04-25T02:37:19.811Z,2.00
2023-04-25T02:40:23.271Z,1.80
2023-04-25T02:43:27.655Z,1.80
2023-04-25T02:46:38.839Z,1.80
2023-04-25T02:49:43.134Z,1.40
2023-04-25T02:52:47.898Z,1.67
2023-04-25T02:55:53.602Z,1.77
2023-04-25T02:58:56.921Z,2.08
2023-04-25T03:02:01.459Z,1.73
2023-04-25T03:05:05.145Z,2.13
2023-04-25T03:08:08.997Z,2.22
2023-04-25T03:11:13.591Z,2.60
2023-04-25T03:14:18.669Z,2.40
2023-04-25T03:17:21.857Z,2.25
2023-04-25T03:20:26.692Z,2.70
2023-04-25T03:23:29.905Z,2.70
2023-04-25T03:26:33.336Z,2.90
2023-04-25T03:29:36.824Z,2.50
2023-04-25T03:32:40.975Z,2.33
2023-04-25T03:35:44.146Z,2.70
2023-04-25T03:38:49.515Z,2.17
2023-04-25T03:41:53.566Z,2.22
2023-04-25T03:44:57.147Z,2.22
2023-04-25T03:48:02.018Z,2.22
2023-04-25T03:51:05.985Z,2.20
2023-04-25T03:54:10.203Z,2.03
2023-04-25T03:57:16.890Z,1.70
2023-04-25T04:00:21.292Z,1.60
2023-04-25T04:03:28.075Z,1.60
2023-04-25T04:06:32.601Z,1.77
2023-04-25T04:09:38.253Z,1.92
2023-04-25T04:12:41.748Z,1.50
2023-04-25T04:15:45.368Z,1.60
2023-04-25T04:18:48.305Z,1.80
2023-04-25T04:21:51.703Z,2.10
2023-04-25T04:24:55.454Z,1.92
2023-04-25T04:28:00.136Z,1.85
2023-04-25T04:31:05.086Z,1.90
2023-04-25T04:34:08.637Z,2.05
2023-04-25T04:37:16.212Z,1.90
2023-04-25T04:40:22.753Z,1.95
2023-04-25T04:43:26.054Z,2.20
2023-04-25T04:46:38.870Z,2.10
2023-04-25T04:49:46.535Z,2.00
2023-04-25T04:52:56.980Z,2.13
2023-04-25T04:56:00.704Z,2.37
2023-04-25T04:59:04.306Z,2.30
2023-04-25T05:02:08.092Z,2.55
2023-04-25T05:05:19.478Z,2.20
2023-04-25T05:08:24.834Z,2.60
2023-04-25T05:11:28.467Z,2.22
2023-04-25T05:14:32.484Z,2.10
2023-04-25T05:17:40.278Z,2.03
2023-04-25T05:20:43.743Z,2.03
2023-04-25T05:23:48.755Z,2.17
2023-04-25T05:26:54.369Z,2.00
2023-04-25T05:29:58.536Z,2.45
2023-04-25T05:33:02.766Z,2.00
2023-04-25T05:36:07.615Z,1.87
2023-04-25T05:39:11.657Z,1.90
2023-04-25T05:42:16.413Z,2.10
2023-04-25T05:45:20.184Z,1.70
2023-04-25T05:48:23.758Z,1.70
2023-04-25T05:51:27.140Z,1.73
2023-04-25T05:54:32.816Z,1.95
2023-04-25T05:57:36.389Z,2.08
2023-04-25T06:00:42.626Z,2.30
2023-04-25T06:03:46.419Z,1.90
2023-04-25T06:06:49.504Z,2.10
2023-04-25T06:09:52.863Z,2.03
2023-04-25T06:12:55.660Z,2.37
2023-04-25T06:15:59.194Z,2.57
2023-04-25T06:19:03.932Z,2.60
2023-04-25T06:22:08.961Z,3.35
2023-04-25T06:25:12.201Z,3.45
2023-04-25T06:28:16.935Z,3.43
2023-04-25T06:31:20.712Z,3.47
2023-04-25T06:34:24.668Z,4.05
2023-04-25T06:37:28.111Z,4.37
2023-04-25T06:40:31.775Z,4.60
2023-04-25T06:43:35.253Z,4.72
2023-04-25T06:46:40.308Z,4.82
2023-04-25T06:49:43.554Z,4.45
2023-04-25T06:52:47.273Z,4.73
2023-04-25T06:55:51.279Z,4.50
2023-04-25T06:58:54.893Z,5.12
2023-04-25T07:01:58.633Z,4.72
2023-04-25T07:05:05.176Z,5.80
2023-04-25T07:08:08.557Z,5.55
2023-04-25T07:11:11.872Z,5.37
2023-04-25T07:14:16.725Z,5.30
2023-04-25T07:17:20.002Z,6.10
2023-04-25T07:20:24.894Z,5.78
2023-04-25T07:23:28.630Z,5.85
2023-04-25T07:26:32.595Z,5.35
2023-04-25T07:29:39.485Z,5.87
2023-04-25T07:32:43.678Z,5.03
2023-04-25T07:35:47.299Z,5.43
2023-04-25T07:38:50.621Z,5.00
2023-04-25T07:41:55.466Z,5.10
2023-04-25T07:44:59.694Z,4.87
2023-04-25T07:48:04.352Z,4.75
2023-04-25T07:51:08.611Z,4.65
2023-04-25T07:54:15.950Z,4.20
2023-04-25T07:57:20.998Z,4.70
2023-04-25T08:00:24.984Z,4.50
2023-04-25T08:03:29.480Z,4.05
2023-04-25T08:06:33.382Z,4.10
2023-04-25T08:09:38.548Z,3.80
2023-04-25T08:12:42.475Z,3.85
2023-04-25T08:15:46.596Z,3.70
2023-04-25T08:18:51.839Z,3.70
2023-04-25T08:21:56.806Z,3.28
2023-04-25T08:25:01.027Z,3.40
2023-04-25T08:28:04.646Z,2.92
2023-04-25T08:31:08.572Z,3.40
2023-04-25T08:34:12.749Z,3.47
2023-04-25T08:37:20.803Z,3.55
2023-04-25T08:40:30.009Z,3.30
2023-04-25T08:43:36.202Z,3.45
2023-04-25T08:46:43.512Z,2.90
2023-04-25T08:49:48.125Z,2.63
2023-04-25T08:52:54.689Z,2.37
2023-04-25T08:56:00.041Z,2.58
2023-04-25T08:59:04.033Z,2.00
2023-04-25T09:02:07.340Z,1.93
2023-04-25T09:05:14.571Z,1.77
2023-04-25T09:08:18.364Z,2.10
2023-04-25T09:11:23.475Z,2.33
2023-04-25T09:14:29.121Z,2.50
2023-04-25T09:17:35.445Z,3.40
2023-04-25T09:23:52.880Z,2.33
2023-04-25T09:26:56.664Z,1.52
2023-04-25T09:30:01.688Z,1.67
2023-04-25T09:33:12.369Z,1.67
2023-04-25T09:36:16.441Z,1.60
2023-04-25T09:39:22.507Z,1.35
2023-04-25T09:42:30.112Z,1.37
2023-04-25T09:45:33.361Z,1.17
2023-04-25T09:48:37.482Z,1.10
2023-04-25T09:51:41.014Z,1.20
2023-04-25T09:54:47.014Z,1.20
2023-04-25T09:57:56.048Z,1.00
2023-04-25T10:01:02.706Z,1.00
2023-04-25T10:04:12.363Z,1.03
2023-04-25T10:07:16.610Z,0.80
2023-04-25T10:10:26.846Z,0.80
2023-04-25T10:13:34.606Z,0.85
2023-04-25T10:16:39.650Z,1.10
2023-04-25T10:19:43.287Z,0.93
2023-04-25T10:22:49.209Z,0.67
2023-04-25T10:25:53.918Z,0.70
2023-04-25T10:29:05.463Z,1.05
2023-04-25T10:32:10.242Z,0.80
2023-04-25T10:35:19.641Z,0.60
2023-04-25T10:38:22.841Z,0.60
2023-04-25T10:41:27.316Z,0.70
2023-04-25T10:44:31.790Z,0.50
2023-04-25T10:47:44.421Z,0.65
2023-04-25T10:50:48.086Z,0.60
2023-04-25T10:53:57.207Z,0.60
2023-04-25T10:57:01.321Z,0.50
2023-04-25T11:00:19.900Z,0.40
2023-04-25T11:03:23.866Z,0.70
2023-04-25T11:06:45.335Z,0.40
2023-04-25T11:09:49.474Z,0.53
2023-04-25T11:12:53.750Z,0.60
2023-04-25T11:16:07.080Z,0.50
2023-04-25T11:19:16.999Z,0.43
2023-04-25T11:22:22.755Z,0.50
2023-04-25T11:25:27.154Z,0.50
2023-04-25T11:28:30.576Z,0.70
2023-04-25T11:31:34.271Z,0.40
2023-04-25T11:34:37.966Z,0.40
2023-04-25T11:37:43.190Z,0.70
2023-04-25T11:40:51.770Z,0.37
2023-04-25T11:43:55.722Z,0.60
2023-04-25T11:47:00.124Z,0.50
2023-04-25T11:50:05.851Z,0.40
2023-04-25T11:53:09.648Z,0.53
2023-04-25T11:56:14.204Z,0.60
2023-04-25T11:59:26.342Z,0.75
2023-04-25T12:02:30.651Z,0.37
2023-04-25T12:05:35.556Z,3.33
2023-04-25T12:08:39.888Z,11.70
2023-04-25T12:11:49.220Z,2.83
2023-04-25T12:14:52.413Z,0.82
2023-04-25T12:17:56.705Z,0.80
2023-04-25T12:20:59.945Z,0.60
2023-04-25T12:24:15.641Z,1.30
2023-04-25T12:27:20.021Z,0.70
2023-04-25T12:30:24.148Z,1.20
2023-04-25T12:33:32.445Z,1.62
2023-04-25T12:36:36.268Z,0.98
2023-04-25T12:39:39.888Z,1.07
2023-04-25T12:42:43.360Z,1.10
2023-04-25T12:45:54.610Z,1.02
2023-04-25T12:49:05.300Z,0.88
2023-04-25T12:52:15.439Z,0.82
2023-04-25T12:55:19.151Z,0.90
2023-04-25T12:58:22.403Z,2.07
2023-04-25T13:01:26.803Z,1.33
2023-04-25T13:04:31.018Z,0.70
2023-04-25T13:07:36.050Z,1.80
2023-04-25T13:10:40.527Z,0.90
2023-04-25T13:13:45.084Z,0.97
2023-04-25T13:16:48.456Z,1.10
2023-04-25T13:19:52.053Z,1.10
2023-04-25T13:22:55.079Z,1.85
2023-04-25T13:26:00.292Z,1.10
2023-04-25T13:29:05.649Z,0.87
2023-04-25T13:32:11.427Z,1.30
2023-04-25T13:35:15.307Z,1.48
2023-04-25T13:38:18.988Z,1.25
2023-04-25T13:41:22.117Z,1.40
2023-04-25T13:44:25.552Z,1.27
2023-04-25T13:47:29.070Z,0.93
2023-04-25T13:50:33.424Z,1.17
2023-04-25T13:53:36.619Z,1.17
2023-04-25T13:56:40.403Z,0.87
2023-04-25T13:59:43.744Z,1.13
2023-04-25T14:02:49.296Z,1.20
2023-04-25T14:05:54.084Z,1.30
2023-04-25T14:08:57.536Z,1.45
2023-04-25T14:12:03.269Z,1.20
2023-04-25T14:15:06.941Z,1.13
2023-04-25T14:18:10.480Z,1.30
2023-04-25T14:21:13.577Z,1.23
2023-04-25T14:24:17.722Z,1.30
2023-04-25T14:27:22.223Z,1.40
2023-04-25T14:30:25.769Z,1.47
2023-04-25T14:33:29.202Z,1.33
2023-04-25T14:36:33.365Z,1.40
2023-04-25T14:39:37.856Z,1.40
2023-04-25T14:42:41.523Z,1.60
2023-04-25T14:45:44.576Z,1.20
2023-04-25T14:48:48.370Z,1.40
2023-04-25T14:51:52.599Z,1.60
2023-04-25T14:54:56.257Z,1.20
2023-04-25T14:57:59.546Z,1.23
2023-04-25T15:01:03.168Z,1.10
2023-04-25T15:04:06.735Z,1.27
2023-04-25T15:07:10.474Z,1.80
2023-04-25T15:10:16.858Z,1.35
2023-04-25T15:13:20.569Z,1.30
2023-04-25T15:16:23.693Z,1.30
2023-04-25T15:19:27.974Z,1.40
2023-04-25T15:22:32.559Z,1.30
2023-04-25T15:25:36.301Z,1.15
2023-04-25T15:28:39.602Z,1.10
2023-04-25T15:31:43.357Z,1.23
2023-04-25T15:34:46.702Z,1.65
2023-04-25T15:37:51.618Z,1.70
2023-04-25T15:40:54.820Z,1.20
2023-04-25T15:44:01.179Z,1.60
2023-04-25T15:47:04.523Z,1.40
2023-04-25T15:50:09.726Z,1.05
2023-04-25T15:53:13.660Z,1.10
2023-04-25T15:56:17.278Z,1.30
2023-04-25T15:59:20.401Z,1.50
2023-04-25T16:02:24.144Z,1.07
2023-04-25T16:05:28.086Z,1.25
2023-04-25T16:08:34.447Z,1.80
2023-04-25T16:11:38.376Z,1.30
2023-04-25T16:14:41.796Z,1.30
2023-04-25T16:17:45.862Z,1.43
2023-04-25T16:20:49.019Z,1.50
2023-04-25T16:23:53.754Z,1.40
2023-04-25T16:26:59.524Z,1.65
2023-04-25T16:30:04.916Z,1.70
2023-04-25T16:33:11.203Z,1.70
2023-04-25T16:36:14.611Z,1.60
2023-04-25T16:39:19.026Z,1.73
2023-04-25T16:42:25.811Z,2.10
2023-04-25T16:45:29.395Z,2.30
2023-04-25T16:48:33.583Z,2.50
2023-04-25T16:51:36.898Z,2.25
2023-04-25T16:54:41.231Z,2.55
2023-04-25T16:57:44.694Z,2.70
2023-04-25T17:00:48.377Z,2.47
2023-04-25T17:03:52.018Z,2.30
2023-04-25T17:06:55.625Z,2.20
2023-04-25T17:10:00.111Z,2.67
2023-04-25T17:13:03.812Z,2.15
2023-04-25T17:16:07.685Z,2.50
2023-04-25T17:19:11.751Z,2.40
2023-04-25T17:22:15.253Z,2.87
2023-04-25T17:25:19.287Z,2.67
2023-04-25T17:28:23.580Z,2.50
2023-04-25T17:31:31.507Z,2.60
2023-04-25T17:34:38.230Z,2.75
2023-04-25T17:37:42.764Z,2.37
2023-04-25T17:40:48.028Z,2.30
2023-04-25T17:43:51.800Z,2.58
2023-04-25T17:46:55.336Z,2.57
2023-04-25T17:50:00.455Z,2.72
2023-04-25T17:53:03.840Z,2.97
2023-04-25T17:56:23.327Z,2.50
2023-04-25T17:59:29.295Z,3.05
2023-04-25T18:02:33.366Z,3.30
2023-04-25T18:05:37.831Z,2.90
2023-04-25T18:08:45.063Z,3.80
2023-04-25T18:11:48.982Z,3.67
2023-04-25T18:14:53.084Z,3.60
2023-04-25T18:17:59.287Z,3.30
2023-04-25T18:21:05.634Z,2.58
2023-04-25T18:24:12.790Z,2.78
2023-04-25T18:27:16.651Z,2.30
2023-04-25T18:30:23.072Z,2.70
2023-04-25T18:33:26.881Z,2.53
2023-04-25T18:36:33.286Z,2.28
2023-04-25T18:39:37.016Z,3.17
2023-04-25T18:42:41.018Z,3.00
2023-04-25T18:45:45.242Z,2.62
2023-04-25T18:48:51.853Z,2.40
2023-04-25T18:51:57.965Z,2.60
2023-04-25T18:55:03.693Z,2.62
2023-04-25T18:58:09.678Z,3.08
2023-04-25T19:01:14.702Z,2.85
2023-04-25T19:04:18.922Z,2.70
2023-04-25T19:07:24.103Z,2.92
2023-04-25T19:10:29.289Z,2.78
2023-04-25T19:13:35.847Z,2.72
2023-04-25T19:16:40.460Z,3.33
2023-04-25T19:19:44.533Z,3.10
2023-04-25T19:22:50.093Z,2.95
2023-04-25T19:25:55.990Z,3.28
2023-04-25T19:29:09.925Z,2.70
2023-04-25T19:32:14.643Z,2.70
2023-04-25T19:35:18.762Z,2.78
2023-04-25T19:38:23.092Z,2.85
2023-04-25T19:41:27.246Z,3.17
2023-04-25T19:44:31.885Z,2.60
2023-04-25T19:47:38.951Z,2.90
2023-04-25T19:50:43.856Z,2.80
2023-04-25T19:53:47.746Z,3.17
2023-04-25T19:56:52.188Z,3.03
2023-04-25T19:59:58.454Z,2.70
2023-04-25T20:03:17.373Z,2.80
2023-04-25T20:06:21.082Z,2.60
2023-04-25T20:09:25.068Z,3.10
2023-04-25T20:12:29.373Z,2.73
2023-04-25T20:15:33.192Z,3.30
2023-04-25T20:18:37.477Z,3.25
2023-04-25T20:21:41.356Z,3.20
2023-04-25T20:24:45.383Z,2.97
2023-04-25T20:27:48.828Z,3.10
2023-04-25T20:30:53.700Z,3.35
2023-04-25T20:33:57.150Z,2.90
2023-04-25T20:37:02.961Z,2.78
2023-04-25T20:40:11.316Z,2.80
2023-04-25T20:43:17.188Z,2.83
2023-04-25T20:46:22.527Z,3.03
2023-04-25T20:49:27.504Z,2.40
2023-04-25T20:52:32.679Z,2.47
2023-04-25T20:55:36.739Z,2.60
2023-04-25T20:58:41.399Z,2.80
2023-04-25T21:01:46.529Z,2.53
2023-04-25T21:04:51.940Z,2.62
2023-04-25T21:07:57.573Z,2.53
2023-04-25T21:11:02.138Z,2.70
2023-04-25T21:14:05.719Z,2.78
2023-04-25T21:17:08.716Z,3.17
2023-04-25T21:20:12.183Z,2.65
2023-04-25T21:23:15.704Z,2.37
2023-04-25T21:26:18.913Z,2.80
2023-04-25T21:29:22.071Z,3.23
2023-04-25T21:32:26.761Z,2.30
2023-04-25T21:35:29.823Z,2.92
2023-04-25T21:38:33.543Z,2.83
2023-04-25T21:41:37.721Z,2.70
2023-04-25T21:44:41.293Z,3.00
2023-04-25T21:47:49.642Z,2.87
2023-04-25T21:50:53.179Z,2.85
2023-04-25T21:53:56.400Z,2.60
2023-04-25T21:57:00.340Z,2.70
2023-04-25T22:00:06.191Z,2.40
2023-04-25T22:03:11.001Z,2.78
2023-04-25T22:06:14.693Z,2.60
2023-04-25T22:09:18.925Z,2.87
2023-04-25T22:12:23.523Z,3.00
2023-04-25T22:15:26.964Z,2.75
2023-04-25T22:18:30.561Z,3.45
2023-04-25T22:21:34.243Z,3.22
2023-04-25T22:24:38.946Z,2.90
2023-04-25T22:27:43.710Z,2.80
2023-04-25T22:30:47.758Z,3.45
2023-04-25T22:33:51.494Z,3.70
2023-04-25T22:36:55.562Z,3.33
2023-04-25T22:39:58.991Z,3.20
2023-04-25T22:43:02.514Z,3.22
2023-04-25T22:46:07.127Z,3.28
2023-04-25T22:49:10.911Z,3.10
2023-04-25T22:52:14.749Z,3.50
2023-04-25T22:55:18.611Z,3.10
2023-04-25T22:58:21.941Z,3.12
2023-04-25T23:01:27.023Z,3.45
2023-04-25T23:04:30.714Z,3.30
2023-04-25T23:07:35.004Z,3.50
2023-04-25T23:10:38.507Z,4.18
2023-04-25T23:13:42.128Z,3.42
2023-04-25T23:16:45.593Z,3.80
2023-04-25T23:19:49.065Z,4.03
2023-04-25T23:22:52.823Z,3.70
2023-04-25T23:25:57.838Z,4.07
2023-04-25T23:29:01.060Z,4.05
2023-04-25T23:32:04.985Z,4.05
2023-04-25T23:35:10.161Z,3.62
2023-04-25T23:38:13.906Z,3.97
2023-04-25T23:41:18.270Z,3.72
2023-04-25T23:44:22.325Z,3.78
2023-04-25T23:47:25.995Z,4.03
2023-04-25T23:50:29.826Z,4.03
2023-04-25T23:53:32.989Z,3.97
2023-04-25T23:56:37.907Z,4.12
2023-04-25T23:59:41.159Z,3.70
